Time;durP1;ratioP1;P1;durP2;ratioP2;P2;SDS_P1;SDS_P2;PMS_P1;PMS_P2;Temp;Humidity;BMP_temperature;BMP_pressure;BME280_temperature;BME280_humidity;BME280_pressure;Samples;Min_cycle;Max_cycle;Signal;HPM_P1;HPM_P2
2023/07/27 00:00:08;;;;;;;;;;;;;;;-144.99;100.00;52354.34;4981187;28;20025;-66
2023/07/27 00:02:35;;;;;;;;;;;;;;;-144.99;100.00;52333.94;4976417;28;19956;-65
2023/07/27 00:05:03;;;;;;;;;;;;;;;-144.99;100.00;52325.81;4977861;28;19956;-67
2023/07/27 00:07:31;;;;;;;;;;;;;;;-144.99;100.00;52358.41;4977974;28;19943;-65
2023/07/27 00:09:57;;;;;;;;;;;;;;;-144.99;100.00;52344.16;4988856;28;20033;-67
2023/07/27 00:12:24;;;;;;;;;;;;;;;-144.99;100.00;52317.66;4989602;28;19965;-65
2023/07/27 00:14:51;;;;;;;;;;;;;;;-144.99;100.00;52321.72;4992881;28;19973;-68
2023/07/27 00:17:18;;;;;;;;;;;;;;;-144.99;100.00;52297.25;4992109;28;19952;-68
2023/07/27 00:19:45;;;;;;;;;;;;;;;-144.99;100.00;52313.56;4987496;28;19949;-68
2023/07/27 00:22:12;;;;;;;;;;;;;;;-144.99;100.00;52325.81;4987132;28;19964;-66
2023/07/27 00:24:40;;;;;;;;;;;;;;;-144.99;100.00;52309.50;4990811;28;19997;-66
2023/07/27 00:27:06;;;;;;;;;;;;;;;-144.99;100.00;52323.75;4980498;28;19950;-64
2023/07/27 00:29:34;;;;;;;;;;;;;;;-144.99;100.00;52329.88;4985128;28;19948;-65
2023/07/27 00:32:00;;;;;;;;;;;;;;;-144.99;100.00;52352.28;4980936;28;19968;-63
2023/07/27 00:34:27;;;;;;;;;;;;;;;-144.99;100.00;52354.34;4981157;28;21204;-63
2023/07/27 00:36:53;;;;;;;;;;;;;;;-144.99;100.00;52362.50;4980631;28;20435;-63
2023/07/27 00:39:20;;;;;;;;;;;;;;;-144.99;100.00;52305.41;4981305;28;19968;-63
2023/07/27 00:41:48;;;;;;;;;;;;;;;-144.99;100.00;52342.09;4987530;28;19975;-62
2023/07/27 00:44:14;;;;;;;;;;;;;;;-144.99;100.00;52346.19;4991709;28;19956;-63
2023/07/27 00:46:41;;;;;;;;;;;;;;;-144.99;100.00;52329.88;4990485;28;19971;-64
2023/07/27 00:49:08;;;;;;;;;;;;;;;-144.99;100.00;52325.81;4991733;28;20011;-63
2023/07/27 00:51:35;;;;;;;;;;;;;;;-144.99;100.00;52354.34;4981528;28;19966;-62
2023/07/27 00:54:02;;;;;;;;;;;;;;;-144.99;100.00;52336.00;4980804;28;19960;-64
2023/07/27 00:56:29;;;;;;;;;;;;;;;-144.99;100.00;52342.09;4983391;28;19940;-68
2023/07/27 00:58:58;;;;;;;;;;;;;;;-144.99;100.00;52342.09;4986175;28;19974;-66
2023/07/27 01:01:25;;;;;;;;;;;;;;;-144.99;100.00;52325.81;4980610;28;19957;-64
2023/07/27 01:03:52;;;;;;;;;;;;;;;-144.99;100.00;52309.50;4980986;28;19963;-65
2023/07/27 01:06:18;;;;;;;;;;;;;;;-144.99;100.00;52313.56;4988804;28;20330;-65
2023/07/27 01:08:45;;;;;;;;;;;;;;;-144.99;100.00;52301.34;4980939;28;20075;-65
2023/07/27 01:11:16;;;;;;;;;;;;;;;-144.99;100.00;52336.00;4984592;28;19969;-68
2023/07/27 01:13:48;;;;;;;;;;;;;;;-144.99;100.00;52313.56;4984367;28;19951;-67
2023/07/27 01:16:20;;;;;;;;;;;;;;;-144.99;100.00;52305.41;4986376;28;19949;-66
2023/07/27 01:18:54;;;;;;;;;;;;;;;-144.99;100.00;52321.72;4983021;28;20130;-65
2023/07/27 01:21:24;;;;;;;;;;;;;;;-144.99;100.00;52338.03;4982478;28;19955;-63
2023/07/27 01:24:06;;;;;;;;;;;;;;;-144.99;100.00;52362.50;4998107;28;19946;-63
2023/07/27 01:26:56;;;;;;;;;;;;;;;-144.99;100.00;52358.41;4983411;28;19939;-65
2023/07/27 01:29:36;;;;;;;;;;;;;;;-144.99;100.00;52305.41;4986668;28;20002;-65
2023/07/27 01:32:05;;;;;;;;;;;;;;;-144.99;100.00;52374.72;4980690;28;19962;-66
2023/07/27 01:34:34;;;;;;;;;;;;;;;-144.99;100.00;52315.59;4981827;28;19947;-64
2023/07/27 01:37:02;;;;;;;;;;;;;;;-144.99;100.00;52338.03;4985216;28;20406;-64
2023/07/27 01:39:30;;;;;;;;;;;;;;;-144.99;100.00;52329.88;4980646;28;19963;-65
2023/07/27 01:41:57;;;;;;;;;;;;;;;-144.99;100.00;52358.41;4979341;28;19973;-64
2023/07/27 01:44:25;;;;;;;;;;;;;;;-144.99;100.00;52340.06;4978973;28;19952;-64
2023/07/27 01:46:52;;;;;;;;;;;;;;;-144.99;100.00;52315.59;4978780;28;19956;-64
2023/07/27 01:49:21;;;;;;;;;;;;;;;-144.99;100.00;52305.41;4980118;28;20408;-65
2023/07/27 01:51:47;;;;;;;;;;;;;;;-144.99;100.00;52354.34;4979110;28;20157;-62
2023/07/27 01:54:15;;;;;;;;;;;;;;;-144.99;100.00;52317.66;4978944;28;19952;-64
2023/07/27 01:56:42;;;;;;;;;;;;;;;-144.99;100.00;52321.72;4979231;28;20429;-64
2023/07/27 01:59:09;;;;;;;;;;;;;;;-144.99;100.00;52309.50;4981426;28;19959;-65
2023/07/27 02:01:36;;;;;;;;;;;;;;;-144.99;100.00;52338.03;4985144;28;19965;-64
2023/07/27 02:04:04;;;;;;;;;;;;;;;-144.99;100.00;52321.72;4979400;28;19958;-64
2023/07/27 02:06:32;;;;;;;;;;;;;;;-144.99;100.00;52354.34;4979512;28;19955;-64
2023/07/27 02:08:59;;;;;;;;;;;;;;;-144.99;100.00;52342.09;4985927;28;19969;-68
2023/07/27 02:11:26;;;;;;;;;;;;;;;-144.99;100.00;52313.56;4989632;28;20327;-68
2023/07/27 02:13:55;;;;;;;;;;;;;;;-144.99;100.00;52354.34;4990060;28;19962;-67
2023/07/27 02:16:24;;;;;;;;;;;;;;;-144.99;100.00;52346.19;4992426;28;19946;-66
2023/07/27 02:18:51;;;;;;;;;;;;;;;-144.99;100.00;52358.41;4991650;28;19962;-66
2023/07/27 02:21:18;;;;;;;;;;;;;;;-144.99;100.00;52311.53;4980772;28;20393;-66
2023/07/27 02:23:47;;;;;;;;;;;;;;;-144.99;100.00;52338.03;4978317;28;20416;-68
2023/07/27 02:26:14;;;;;;;;;;;;;;;-144.99;100.00;52270.78;4978978;28;19962;-67
2023/07/27 02:28:40;;;;;;;;;;;;;;;-144.99;100.00;52311.53;4978963;28;20049;-65
2023/07/27 02:31:07;;;;;;;;;;;;;;;-144.99;100.00;52358.41;4977882;28;19981;-66
2023/07/27 02:33:34;;;;;;;;;;;;;;;-144.99;100.00;52388.97;4986610;28;19945;-65
2023/07/27 02:36:00;;;;;;;;;;;;;;;-144.99;100.00;52382.88;4983503;28;20369;-65
2023/07/27 02:38:27;;;;;;;;;;;;;;;-144.99;100.00;52338.03;4989334;28;19962;-64
2023/07/27 02:40:55;;;;;;;;;;;;;;;-144.99;100.00;52325.81;4988139;28;20178;-66
2023/07/27 02:43:21;;;;;;;;;;;;;;;-144.99;100.00;52370.63;4989199;28;19944;-65
2023/07/27 02:45:48;;;;;;;;;;;;;;;-144.99;100.00;52354.34;4982528;28;21180;-69
2023/07/27 02:48:15;;;;;;;;;;;;;;;-144.99;100.00;52331.91;4984186;28;19963;-67
2023/07/27 02:50:49;;;;;;;;;;;;;;;-144.99;100.00;52342.09;4979143;28;19974;-69
2023/07/27 02:53:15;;;;;;;;;;;;;;;-144.99;100.00;52354.34;4977346;28;19947;-69
2023/07/27 02:55:42;;;;;;;;;;;;;;;-144.99;100.00;52358.41;4979118;28;19951;-69
2023/07/27 02:58:10;;;;;;;;;;;;;;;-144.99;100.00;52358.41;4977262;28;19943;-67
2023/07/27 03:00:36;;;;;;;;;;;;;;;-144.99;100.00;52372.69;4978129;28;19961;-68
2023/07/27 03:03:03;;;;;;;;;;;;;;;-144.99;100.00;52360.44;4977204;28;19958;-68
2023/07/27 03:05:30;;;;;;;;;;;;;;;-144.99;100.00;52321.72;4977401;28;19969;-70
2023/07/27 03:07:56;;;;;;;;;;;;;;;-144.99;100.00;52346.19;4977782;28;19950;-69
2023/07/27 03:10:23;;;;;;;;;;;;;;;-144.99;100.00;52340.06;4978770;28;19951;-69
2023/07/27 03:12:50;;;;;;;;;;;;;;;-144.99;100.00;52362.50;4982421;28;21397;-70
2023/07/27 03:15:18;;;;;;;;;;;;;;;-144.99;100.00;52346.19;4979983;28;19949;-69
2023/07/27 03:17:44;;;;;;;;;;;;;;;-144.99;100.00;52340.06;4979708;28;20031;-66
2023/07/27 03:20:11;;;;;;;;;;;;;;;-144.99;100.00;52338.03;4983523;28;19966;-67
2023/07/27 03:22:38;;;;;;;;;;;;;;;-144.99;100.00;52395.09;4988125;28;19958;-67
2023/07/27 03:25:04;;;;;;;;;;;;;;;-144.99;100.00;52350.25;4986986;28;19949;-66
2023/07/27 03:27:31;;;;;;;;;;;;;;;-144.99;100.00;52362.50;4988104;28;19972;-68
2023/07/27 03:29:58;;;;;;;;;;;;;;;-144.99;100.00;52362.50;4988939;28;19941;-65
2023/07/27 03:32:25;;;;;;;;;;;;;;;-144.99;100.00;52325.81;4986448;28;19961;-67
2023/07/27 03:34:52;;;;;;;;;;;;;;;-144.99;100.00;52358.41;4988524;28;19946;-67
2023/07/27 03:37:19;;;;;;;;;;;;;;;-144.99;100.00;52366.56;4988967;28;20402;-65
2023/07/27 03:39:45;;;;;;;;;;;;;;;-144.99;100.00;52395.09;4987334;28;19965;-66
2023/07/27 03:42:12;;;;;;;;;;;;;;;-144.99;100.00;52354.34;4988920;28;19978;-66
2023/07/27 03:44:39;;;;;;;;;;;;;;;-144.99;100.00;52333.94;4988353;28;19946;-64
2023/07/27 03:47:06;;;;;;;;;;;;;;;-144.99;100.00;52368.59;4988594;28;19954;-64
2023/07/27 03:49:34;;;;;;;;;;;;;;;-144.99;100.00;52342.09;4988241;28;19947;-65
2023/07/27 03:52:00;;;;;;;;;;;;;;;-144.99;100.00;52342.09;4982620;28;19959;-65
2023/07/27 03:54:27;;;;;;;;;;;;;;;-144.99;100.00;52382.88;4988307;28;20389;-66
2023/07/27 03:56:53;;;;;;;;;;;;;;;-144.99;100.00;52342.09;4990199;28;19968;-65
2023/07/27 03:59:20;;;;;;;;;;;;;;;-144.99;100.00;52340.06;4988250;28;19963;-68
2023/07/27 04:01:47;;;;;;;;;;;;;;;-144.99;100.00;52370.63;4982165;28;19975;-70
2023/07/27 04:04:14;;;;;;;;;;;;;;;-144.99;100.00;52342.09;4983969;28;19941;-73
2023/07/27 04:06:42;;;;;;;;;;;;;;;-144.99;100.00;52319.69;4982907;28;19957;-72
2023/07/27 04:09:09;;;;;;;;;;;;;;;-144.99;100.00;52368.59;4982977;28;20036;-73
2023/07/27 04:11:36;;;;;;;;;;;;;;;-144.99;100.00;52321.72;4984083;28;20004;-73
2023/07/27 04:14:02;;;;;;;;;;;;;;;-144.99;100.00;52338.03;4986353;28;19971;-73
2023/07/27 04:16:29;;;;;;;;;;;;;;;-144.99;100.00;52338.03;4990682;28;19945;-73
2023/07/27 04:18:55;;;;;;;;;;;;;;;-144.99;100.00;52313.56;4989481;28;19976;-73
2023/07/27 04:21:22;;;;;;;;;;;;;;;-144.99;100.00;52327.84;4988636;28;19956;-72
2023/07/27 04:23:50;;;;;;;;;;;;;;;-144.99;100.00;52333.94;4988389;28;20381;-73
2023/07/27 04:26:17;;;;;;;;;;;;;;;-144.99;100.00;52354.34;4987250;28;19953;-73
2023/07/27 04:28:43;;;;;;;;;;;;;;;-144.99;100.00;52356.38;4983748;28;20093;-73
2023/07/27 04:31:10;;;;;;;;;;;;;;;-144.99;100.00;52305.41;4991213;28;20408;-73
2023/07/27 04:33:37;;;;;;;;;;;;;;;-144.99;100.00;52374.72;4988317;28;19941;-73
2023/07/27 04:36:03;;;;;;;;;;;;;;;-144.99;100.00;52321.72;4988878;28;20334;-74
2023/07/27 04:38:30;;;;;;;;;;;;;;;-144.99;100.00;52317.66;4988412;28;19938;-74
2023/07/27 04:40:58;;;;;;;;;;;;;;;-144.99;100.00;52333.94;4988927;28;19967;-75
2023/07/27 04:43:25;;;;;;;;;;;;;;;-144.99;100.00;52323.75;4989113;28;20408;-75
2023/07/27 04:45:51;;;;;;;;;;;;;;;-144.99;100.00;52344.16;4978335;28;19943;-75
2023/07/27 04:48:18;;;;;;;;;;;;;;;-144.99;100.00;52321.72;4982560;28;20292;-74
2023/07/27 04:50:45;;;;;;;;;;;;;;;-144.99;100.00;52301.34;4982549;28;20427;-75
2023/07/27 04:53:11;;;;;;;;;;;;;;;-144.99;100.00;52329.88;4979143;28;19962;-75
2023/07/27 04:55:38;;;;;;;;;;;;;;;-144.99;100.00;52321.72;4987463;28;19969;-75
2023/07/27 04:58:06;;;;;;;;;;;;;;;-144.99;100.00;52366.56;4988331;28;19939;-74
2023/07/27 05:00:32;;;;;;;;;;;;;;;-144.99;100.00;52325.81;4989770;28;20367;-75
2023/07/27 05:02:59;;;;;;;;;;;;;;;-144.99;100.00;52291.16;4990871;28;19958;-74
2023/07/27 05:05:26;;;;;;;;;;;;;;;-144.99;100.00;52325.81;4988292;28;19965;-75
2023/07/27 05:07:52;;;;;;;;;;;;;;;-144.99;100.00;52336.00;4989902;28;19950;-74
2023/07/27 05:10:19;;;;;;;;;;;;;;;-144.99;100.00;52313.56;4985011;28;19938;-75
2023/07/27 05:12:46;;;;;;;;;;;;;;;-144.99;100.00;52344.16;4991315;28;20318;-74
2023/07/27 05:15:14;;;;;;;;;;;;;;;-144.99;100.00;52333.94;4990614;28;19942;-74
2023/07/27 05:17:40;;;;;;;;;;;;;;;-144.99;100.00;52342.09;4997117;28;19952;-74
2023/07/27 05:20:07;;;;;;;;;;;;;;;-144.99;100.00;52309.50;4988158;28;19967;-75
2023/07/27 05:22:34;;;;;;;;;;;;;;;-144.99;100.00;52354.34;4987481;28;19961;-75
2023/07/27 05:25:00;;;;;;;;;;;;;;;-144.99;100.00;52331.91;4986127;28;19942;-73
2023/07/27 05:27:27;;;;;;;;;;;;;;;-144.99;100.00;52317.66;4992126;28;19943;-75
2023/07/27 05:29:54;;;;;;;;;;;;;;;-144.99;100.00;52333.94;4991217;28;19951;-73
2023/07/27 05:32:22;;;;;;;;;;;;;;;-144.99;100.00;52333.94;4993402;28;19971;-74
2023/07/27 05:34:48;;;;;;;;;;;;;;;-144.99;100.00;52350.25;4988650;28;19947;-74
2023/07/27 05:37:15;;;;;;;;;;;;;;;-144.99;100.00;52313.56;4992694;28;19951;-75
2023/07/27 05:39:41;;;;;;;;;;;;;;;-144.99;100.00;52309.50;4996629;28;20074;-75
2023/07/27 05:42:08;;;;;;;;;;;;;;;-144.99;100.00;52331.91;4989114;28;19972;-75
2023/07/27 05:44:35;;;;;;;;;;;;;;;-144.99;100.00;52297.25;4989981;28;19942;-75
2023/07/27 05:47:04;;;;;;;;;;;;;;;-144.99;100.00;52293.19;4992486;28;19954;-74
2023/07/27 05:49:33;;;;;;;;;;;;;;;-144.99;100.00;52289.13;4985202;28;19948;-75
2023/07/27 05:51:59;;;;;;;;;;;;;;;-144.99;100.00;52303.38;4987872;28;19957;-75
2023/07/27 05:54:26;;;;;;;;;;;;;;;-144.99;100.00;52305.41;4982905;28;19951;-74
2023/07/27 05:56:53;;;;;;;;;;;;;;;-144.99;100.00;52301.34;4991937;28;20000;-74
2023/07/27 05:59:20;;;;;;;;;;;;;;;-144.99;100.00;52303.38;4989905;28;19936;-74
2023/07/27 06:01:46;;;;;;;;;;;;;;;-144.99;100.00;52289.13;4985876;28;20503;-74
2023/07/27 06:04:13;;;;;;;;;;;;;;;-144.99;100.00;52280.97;4990703;28;19941;-76
2023/07/27 06:06:43;;;;;;;;;;;;;;;-144.99;100.00;52303.38;4990732;28;19960;-75
2023/07/27 06:09:10;;;;;;;;;;;;;;;-144.99;100.00;52317.66;4992302;28;19944;-74
2023/07/27 06:11:37;;;;;;;;;;;;;;;-144.99;100.00;52289.13;4990400;28;19961;-75
2023/07/27 06:14:04;;;;;;;;;;;;;;;-144.99;100.00;52309.50;4989975;28;19947;-75
2023/07/27 06:16:30;;;;;;;;;;;;;;;-144.99;100.00;52325.81;4992765;28;19943;-75
2023/07/27 06:18:57;;;;;;;;;;;;;;;-144.99;100.00;52289.13;4997977;28;19949;-74
2023/07/27 06:21:24;;;;;;;;;;;;;;;-144.99;100.00;52285.03;4993219;28;19968;-74
2023/07/27 06:23:52;;;;;;;;;;;;;;;-144.99;100.00;52268.72;5002186;28;19954;-74
2023/07/27 06:26:18;;;;;;;;;;;;;;;-144.99;100.00;52301.34;4992065;28;19930;-74
2023/07/27 06:28:45;;;;;;;;;;;;;;;-144.99;100.00;52301.34;4989141;28;19944;-75
2023/07/27 06:31:11;;;;;;;;;;;;;;;-144.99;100.00;52309.50;4982211;28;19958;-74
2023/07/27 06:33:38;;;;;;;;;;;;;;;-144.99;100.00;52303.38;4994705;28;19945;-75
2023/07/27 06:36:07;;;;;;;;;;;;;;;-144.99;100.00;52311.53;4981083;28;19938;-74
2023/07/27 06:38:34;;;;;;;;;;;;;;;-144.99;100.00;52305.41;4991062;28;20395;-75
2023/07/27 06:41:02;;;;;;;;;;;;;;;-144.99;100.00;52321.72;4988840;28;19960;-75
2023/07/27 06:43:29;;;;;;;;;;;;;;;-144.99;100.00;52301.34;4986743;28;19946;-76
2023/07/27 06:45:55;;;;;;;;;;;;;;;-144.99;100.00;52289.13;4985093;28;19966;-75
2023/07/27 06:48:22;;;;;;;;;;;;;;;-144.99;100.00;52252.44;4984948;28;19942;-74
2023/07/27 06:50:49;;;;;;;;;;;;;;;-144.99;100.00;52280.97;4996547;28;20068;-75
2023/07/27 06:53:15;;;;;;;;;;;;;;;-144.99;99.38;52266.69;4996969;28;20407;-75
2023/07/27 06:55:42;;;;;;;;;;;;;;;-144.99;98.77;52303.38;4978399;28;19945;-76
2023/07/27 06:58:10;;;;;;;;;;;;;;;-144.99;98.20;52297.25;4993800;28;19946;-76
2023/07/27 07:00:37;;;;;;;;;;;;;;;-144.99;98.51;52280.97;4982611;28;20475;-76
2023/07/27 07:03:04;;;;;;;;;;;;;;;-144.99;98.34;52289.13;4994404;28;19937;-77
2023/07/27 07:05:31;;;;;;;;;;;;;;;-144.99;98.00;52309.50;4990557;28;19971;-75
2023/07/27 07:07:57;;;;;;;;;;;;;;;-144.99;97.85;52327.84;4992059;28;19951;-76
2023/07/27 07:10:24;;;;;;;;;;;;;;;-144.99;98.03;52289.13;4990846;28;19945;-75
2023/07/27 07:12:51;;;;;;;;;;;;;;;-144.99;97.69;52283.00;4976349;28;19954;-76
2023/07/27 07:15:19;;;;;;;;;;;;;;;-144.99;96.85;52293.19;4991791;28;19938;-76
2023/07/27 07:17:45;;;;;;;;;;;;;;;-144.99;97.93;52301.34;4995907;28;19957;-75
2023/07/27 07:20:14;;;;;;;;;;;;;;;-144.99;97.26;52309.50;4985181;28;20425;-76
2023/07/27 07:22:40;;;;;;;;;;;;;;;-144.99;96.78;52285.03;4988476;28;20021;-76
2023/07/27 07:25:07;;;;;;;;;;;;;;;-144.99;96.85;52313.56;4982086;28;19953;-76
2023/07/27 07:27:34;;;;;;;;;;;;;;;-144.99;95.70;52285.03;4985163;28;20436;-75
2023/07/27 07:30:03;;;;;;;;;;;;;;;-144.99;96.14;52301.34;4989085;28;19956;-75
2023/07/27 07:32:33;;;;;;;;;;;;;;;-144.99;95.95;52289.13;4982051;28;19976;-75
2023/07/27 07:35:00;;;;;;;;;;;;;;;-144.99;96.12;52305.41;4988431;28;20396;-75
2023/07/27 07:37:26;;;;;;;;;;;;;;;-144.99;95.87;52291.16;4999869;28;19943;-75
2023/07/27 07:39:53;;;;;;;;;;;;;;;-144.99;94.99;52305.41;5001099;28;19945;-76
2023/07/27 07:42:20;;;;;;;;;;;;;;;-144.99;93.99;52256.50;5011947;28;20046;-75
2023/07/27 07:44:47;;;;;;;;;;;;;;;-144.99;93.47;52262.63;5000257;28;19960;-76
2023/07/27 07:47:13;;;;;;;;;;;;;;;-144.99;93.91;52280.97;5004215;28;19974;-74
2023/07/27 07:49:41;;;;;;;;;;;;;;;-144.99;94.58;52258.53;5005078;28;19948;-76
2023/07/27 07:52:08;;;;;;;;;;;;;;;-144.99;93.96;52305.41;5007310;28;19980;-75
2023/07/27 07:54:35;;;;;;;;;;;;;;;-144.99;93.90;52309.50;5007640;28;19948;-75
2023/07/27 07:57:01;;;;;;;;;;;;;;;-144.99;93.26;52309.50;5005802;28;19934;-75
2023/07/27 07:59:28;;;;;;;;;;;;;;;-144.99;92.95;52313.56;5010875;28;19930;-74
2023/07/27 08:01:55;;;;;;;;;;;;;;;-144.99;93.50;52346.19;5010317;28;19965;-75
2023/07/27 08:04:21;;;;;;;;;;;;;;;-144.99;93.69;52297.25;5010945;28;19979;-76
2023/07/27 08:06:49;;;;;;;;;;;;;;;-144.99;94.42;52268.72;5010379;28;19945;-74
2023/07/27 08:09:16;;;;;;;;;;;;;;;-144.99;94.87;52329.88;5009753;28;20206;-75
2023/07/27 08:11:43;;;;;;;;;;;;;;;-144.99;94.88;52313.56;5007557;28;19966;-76
2023/07/27 08:14:09;;;;;;;;;;;;;;;-144.99;93.98;52325.81;5017490;28;19932;-74
2023/07/27 08:16:36;;;;;;;;;;;;;;;-144.99;95.02;52285.03;5006490;28;19932;-75
2023/07/27 08:19:02;;;;;;;;;;;;;;;-144.99;94.85;52301.34;5013290;28;19951;-75
2023/07/27 08:21:29;;;;;;;;;;;;;;;-144.99;94.34;52305.41;5007391;28;20009;-75
2023/07/27 08:23:57;;;;;;;;;;;;;;;-144.99;94.41;52285.03;5013627;28;19936;-75
2023/07/27 08:26:24;;;;;;;;;;;;;;;-144.99;93.76;52291.16;5007003;28;19974;-74
2023/07/27 08:28:51;;;;;;;;;;;;;;;-144.99;93.59;52301.34;5010438;28;19944;-75
2023/07/27 08:31:18;;;;;;;;;;;;;;;-144.99;94.07;52329.88;5017013;28;19955;-75
2023/07/27 08:33:44;;;;;;;;;;;;;;;-144.99;93.96;52315.59;5013730;28;19930;-75
2023/07/27 08:36:11;;;;;;;;;;;;;;;-144.99;94.05;52295.22;5023465;28;19939;-75
2023/07/27 08:38:38;;;;;;;;;;;;;;;-144.99;93.47;52309.50;5002649;28;19948;-74
2023/07/27 08:41:06;;;;;;;;;;;;;;;-144.99;93.72;52297.25;5001400;28;20223;-74
2023/07/27 08:43:32;;;;;;;;;;;;;;;-144.99;93.61;52313.56;5004496;28;19946;-74
2023/07/27 08:46:00;;;;;;;;;;;;;;;-144.99;93.42;52329.88;5002221;28;19945;-74
2023/07/27 08:48:28;;;;;;;;;;;;;;;-144.99;94.62;52317.66;5003303;28;20350;-74
2023/07/27 08:50:55;;;;;;;;;;;;;;;-144.99;94.53;52264.66;5011340;28;19959;-74
2023/07/27 08:53:22;;;;;;;;;;;;;;;-144.99;94.68;52342.09;5013256;28;19957;-74
2023/07/27 08:55:49;;;;;;;;;;;;;;;-144.99;95.14;52309.50;5013927;28;19932;-74
2023/07/27 08:58:17;;;;;;;;;;;;;;;-144.99;95.51;52280.97;5010509;28;19940;-74
2023/07/27 09:00:43;;;;;;;;;;;;;;;-144.99;95.04;52280.97;5014703;28;19950;-77
2023/07/27 09:03:10;;;;;;;;;;;;;;;-144.99;94.98;52317.66;5015659;28;19953;-75
2023/07/27 09:05:40;;;;;;;;;;;;;;;-144.99;94.81;52299.31;5007769;28;19941;-74
2023/07/27 09:08:08;;;;;;;;;;;;;;;-144.99;94.20;52280.97;5003577;28;19952;-76
2023/07/27 09:10:34;;;;;;;;;;;;;;;-144.99;93.69;52280.97;4997940;28;20401;-75
2023/07/27 09:13:02;;;;;;;;;;;;;;;-144.99;93.78;52285.03;5010684;28;19938;-75
2023/07/27 09:15:30;;;;;;;;;;;;;;;-144.99;94.22;52264.66;5007237;28;19945;-75
2023/07/27 09:17:58;;;;;;;;;;;;;;;-144.99;95.80;52258.53;5012624;28;19959;-76
2023/07/27 09:20:25;;;;;;;;;;;;;;;-144.99;95.30;52307.47;5007687;28;20015;-75
2023/07/27 09:22:52;;;;;;;;;;;;;;;-144.99;96.25;52331.91;5012824;28;19989;-76
2023/07/27 09:25:21;;;;;;;;;;;;;;;-144.99;96.96;52252.44;5009116;28;19946;-78
2023/07/27 09:27:48;;;;;;;;;;;;;;;-144.99;96.28;52276.88;5004221;28;20011;-74
2023/07/27 09:30:17;;;;;;;;;;;;;;;-144.99;96.87;52285.03;4999624;28;19946;-75
2023/07/27 09:32:45;;;;;;;;;;;;;;;-144.99;98.28;52336.00;4994406;28;20024;-75
2023/07/27 09:35:13;;;;;;;;;;;;;;;-144.99;97.41;52266.69;5009658;28;19933;-78
2023/07/27 09:37:43;;;;;;;;;;;;;;;-144.99;97.30;52291.16;5006021;28;19952;-75
2023/07/27 09:40:12;;;;;;;;;;;;;;;-144.99;97.51;52293.19;5012110;28;20062;-76
2023/07/27 09:42:39;;;;;;;;;;;;;;;-144.99;98.08;52297.25;5013237;28;20344;-77
2023/07/27 09:45:06;;;;;;;;;;;;;;;-144.99;97.10;52291.16;5011584;28;19986;-74
2023/07/27 09:47:33;;;;;;;;;;;;;;;-144.99;96.99;52268.72;5014114;28;19959;-77
2023/07/27 09:50:01;;;;;;;;;;;;;;;-144.99;97.29;52262.63;5021772;28;19954;-77
2023/07/27 09:52:28;;;;;;;;;;;;;;;-144.99;96.86;52280.97;5010915;28;19944;-78
2023/07/27 09:54:55;;;;;;;;;;;;;;;-144.99;96.50;52285.03;5016996;28;19990;-76
2023/07/27 09:57:22;;;;;;;;;;;;;;;-144.99;95.44;52264.66;5015834;28;20199;-76
2023/07/27 09:59:49;;;;;;;;;;;;;;;-144.99;94.29;52260.56;5013977;28;19947;-77
2023/07/27 10:02:16;;;;;;;;;;;;;;;-144.99;93.10;52223.88;5020175;28;19960;-75
2023/07/27 10:04:43;;;;;;;;;;;;;;;-144.99;93.33;52240.19;5012153;28;19953;-75
2023/07/27 10:07:11;;;;;;;;;;;;;;;-144.99;92.40;52252.44;5008633;28;19946;-74
2023/07/27 10:09:39;;;;;;;;;;;;;;;-144.99;92.52;52285.03;5011003;28;19958;-75
2023/07/27 10:12:05;;;;;;;;;;;;;;;-144.99;92.93;52280.97;5011296;28;19962;-76
2023/07/27 10:14:33;;;;;;;;;;;;;;;-144.99;92.62;52280.97;5015695;28;19922;-76
2023/07/27 10:17:00;;;;;;;;;;;;;;;-144.99;93.49;52266.69;5009807;28;19946;-75
2023/07/27 10:19:27;;;;;;;;;;;;;;;-144.99;92.66;52246.31;5001665;28;19939;-75
2023/07/27 10:21:54;;;;;;;;;;;;;;;-144.99;93.55;52297.25;4995219;28;19969;-75
2023/07/27 10:24:24;;;;;;;;;;;;;;;-144.99;93.57;52236.13;5002874;28;19941;-75
2023/07/27 10:26:51;;;;;;;;;;;;;;;-144.99;92.52;52250.38;5005633;28;19946;-75
2023/07/27 10:29:19;;;;;;;;;;;;;;;-144.99;91.70;52256.50;5002938;28;20310;-75
2023/07/27 10:31:46;;;;;;;;;;;;;;;-144.99;91.73;52244.28;4993217;28;20336;-77
2023/07/27 10:34:16;;;;;;;;;;;;;;;-144.99;91.35;52244.28;4992884;28;19946;-75
2023/07/27 10:36:50;;;;;;;;;;;;;;;-144.99;91.84;52256.50;4986371;28;20324;-75
2023/07/27 10:39:18;;;;;;;;;;;;;;;-144.99;90.69;52264.66;4989257;28;19941;-76
2023/07/27 10:41:59;;;;;;;;;;;;;;;-144.99;89.86;52248.34;4990176;28;20589;-74
2023/07/27 10:44:26;;;;;;;;;;;;;;;-144.99;88.93;52264.66;4986127;28;20366;-76
2023/07/27 10:46:55;;;;;;;;;;;;;;;-144.99;88.82;52248.34;4988271;28;19950;-76
2023/07/27 10:49:22;;;;;;;;;;;;;;;-144.99;88.05;52223.88;4998318;28;20005;-76
2023/07/27 10:51:50;;;;;;;;;;;;;;;-144.99;88.42;52256.50;4984357;28;20007;-75
2023/07/27 10:54:16;;;;;;;;;;;;;;;-144.99;89.02;52223.88;4988158;28;19947;-78
2023/07/27 10:56:43;;;;;;;;;;;;;;;-144.99;89.37;52268.72;4983232;28;19955;-75
2023/07/27 10:59:15;;;;;;;;;;;;;;;-144.99;89.37;52242.22;4987181;28;19973;-75
2023/07/27 11:01:42;;;;;;;;;;;;;;;-144.99;89.27;52311.53;4995524;28;20014;-76
2023/07/27 11:04:10;;;;;;;;;;;;;;;-144.99;89.76;52260.56;4994909;28;19947;-77
2023/07/27 11:06:44;;;;;;;;;;;;;;;-144.99;89.48;52244.28;4989996;28;20426;-75
2023/07/27 11:09:11;;;;;;;;;;;;;;;-144.99;88.90;52223.88;4982891;28;19943;-75
2023/07/27 11:11:38;;;;;;;;;;;;;;;-144.99;89.95;52256.50;4991248;28;19967;-74
2023/07/27 11:14:05;;;;;;;;;;;;;;;-144.99;91.33;52252.44;4991615;28;19940;-75
2023/07/27 11:16:37;;;;;;;;;;;;;;;-144.99;91.31;52248.34;4993881;28;20040;-75
2023/07/27 11:19:03;;;;;;;;;;;;;;;-144.99;91.22;52232.03;4987785;28;20289;-76
2023/07/27 11:21:32;;;;;;;;;;;;;;;-144.99;90.53;52236.13;4986899;28;19968;-74
2023/07/27 11:23:58;;;;;;;;;;;;;;;-144.99;88.51;52256.50;4990955;28;20049;-76
2023/07/27 11:26:26;;;;;;;;;;;;;;;-144.99;87.02;52248.34;4996524;28;19944;-75
2023/07/27 11:28:53;;;;;;;;;;;;;;;-144.99;86.32;52258.53;4990665;28;19943;-75
2023/07/27 11:31:20;;;;;;;;;;;;;;;-144.99;85.43;52215.75;4987646;28;19955;-74
2023/07/27 11:33:48;;;;;;;;;;;;;;;-144.99;85.08;52219.81;4995911;28;19952;-74
2023/07/27 11:36:15;;;;;;;;;;;;;;;-144.99;85.55;52223.88;5003196;28;20398;-76
2023/07/27 11:38:41;;;;;;;;;;;;;;;-144.99;83.25;52236.13;4995028;28;20360;-75
2023/07/27 11:41:08;;;;;;;;;;;;;;;-144.99;84.24;52248.34;4995859;28;20008;-75
2023/07/27 11:43:35;;;;;;;;;;;;;;;-144.99;82.67;52252.44;4990848;28;20400;-75
2023/07/27 11:46:01;;;;;;;;;;;;;;;-144.99;81.32;52254.47;4988833;28;20422;-76
2023/07/27 11:48:28;;;;;;;;;;;;;;;-144.99;81.03;52227.97;4993727;28;19947;-76
2023/07/27 11:50:57;;;;;;;;;;;;;;;-144.99;81.19;52268.72;4986679;28;19968;-75
2023/07/27 11:53:25;;;;;;;;;;;;;;;-144.99;81.49;52238.16;4992763;28;19953;-75
2023/07/27 11:55:52;;;;;;;;;;;;;;;-144.99;80.60;52232.03;4989441;28;20001;-75
2023/07/27 11:58:18;;;;;;;;;;;;;;;-144.99;80.54;52264.66;4992864;28;19943;-75
2023/07/27 12:00:47;;;;;;;;;;;;;;;-144.99;80.07;52240.19;4992991;28;19968;-75
2023/07/27 12:03:14;;;;;;;;;;;;;;;-144.99;80.45;52236.13;4996482;28;19956;-75
2023/07/27 12:05:40;;;;;;;;;;;;;;;-144.99;79.11;52223.88;4987539;28;20028;-75
2023/07/27 12:08:08;;;;;;;;;;;;;;;-144.99;78.97;52217.78;4992066;28;20412;-75
2023/07/27 12:10:35;;;;;;;;;;;;;;;-144.99;80.56;52244.28;4994242;28;20321;-75
2023/07/27 12:13:03;;;;;;;;;;;;;;;-144.99;81.38;52238.16;4989928;28;20044;-74
2023/07/27 12:15:31;;;;;;;;;;;;;;;-144.99;82.14;52252.44;5000477;28;19969;-76
2023/07/27 12:17:58;;;;;;;;;;;;;;;-144.99;81.55;52264.66;5001416;28;19945;-75
2023/07/27 12:20:25;;;;;;;;;;;;;;;-144.99;82.14;52248.34;4992187;28;19959;-76